Flight Track Log - Related Links

Times and Time Zones

All times are in EST time to prevent confusion due to time zone crossing. See the UPS1231 flight status page for this flight to view local times or setup timezone preferences in your user account.

Time Position Orientation Groundspeed Altitude Reporting Facility
EST Latitude Longitude Course Direction KTS MPH feet Rate Location/Type
Thu 10:14:02 PM 37.5167 -77.3167 282° West 153 176 1,300  Level Potomac TRACON
Thu 10:15:14 PM 37.5278 -77.3856 282° West 145 167 4,600 3,091 Climbing Washington Center
Thu 10:16:14 PM 37.5036 -77.4661 249° West 187 215 8,100 3,174 Climbing Washington Center
Thu 10:17:15 PM 37.4794 -77.5519 250° West 225 259 11,000 3,100 Climbing Washington Center
Thu 10:18:14 PM 37.4506 -77.6506 250° West 269 310 14,300 3,731 Climbing Washington Center
Thu 10:19:14 PM 37.4217 -77.7519 250° West 321 369 18,400 2,824 Climbing Washington Center
Thu 10:20:13 PM 37.3925 -77.8661 252° West 346 398 19,900 793 Climbing Washington Center
Thu 10:21:15 PM 37.3589 -77.9800 250° West 352 405 20,000 50 Climbing Washington Center
Thu 10:22:13 PM 37.3336 -78.0942 254° West 352 405 20,000  Level Washington Center
Thu 10:23:13 PM 37.3081 -78.2211 256° West 341 392 20,000  Level Washington Center
Thu 10:24:15 PM 37.2825 -78.3353 254° West 341 392 20,000 1,000 Level Washington Center
Thu 10:25:13 PM 37.2778 -78.4550 267° West 341 392 22,000 2,850 Climbing Washington Center
Thu 10:26:15 PM 37.2772 -78.5594 270° West 335 386 25,700 3,250 Climbing Washington Center
Thu 10:27:13 PM 37.2806 -78.6797 272° West 335 386 28,500 2,746 Climbing Washington Center
Thu 10:28:13 PM 37.2919 -78.8028 277° West 350 403 31,100 2,182 Climbing Washington Center
Thu 10:29:14 PM 37.3028 -78.9314 276° West 363 418 32,900 1,415 Climbing Washington Center
Thu 10:30:16 PM 37.3139 -79.0622 276° West 369 425 34,000 555 Climbing Washington Center
Thu 10:31:13 PM 37.3242 -79.2011 275° West 369 425 34,000  Level Washington Center
Thu 10:32:14 PM 37.3331 -79.3269 275° West 369 425 34,000  Level Washington Center
Thu 10:33:13 PM 37.3414 -79.4556 275° West 369 425 34,000  Level Washington Center
Thu 10:34:13 PM 37.3539 -79.5867 277° West 369 425 34,000  Level Washington Center
Thu 10:35:14 PM 37.3639 -79.7181 276° West 369 425 34,000  Level Washington Center
Thu 10:36:15 PM 37.3739 -79.8467 276° West 369 425 34,000  Level Washington Center
Thu 10:37:13 PM 37.3839 -79.9778 276° West 369 425 34,000  Level Washington Center
Thu 10:38:15 PM 37.3939 -80.1039 276° West 369 425 34,000  Level Washington Center
Thu 10:39:13 PM 37.4033 -80.2353 275° West 374 430 34,000  Level Washington Center
Thu 10:41:13 PM 37.4228 -80.4772 276° West 374 430 34,000  Level Indianapolis Center
Thu 10:42:14 PM 37.4314 -80.6044 275° West 373 429 34,000  Level Indianapolis Center
Thu 10:43:15 PM 37.4422 -80.7567 275° West 373 429 34,000  Level Indianapolis Center
Thu 10:44:16 PM 37.4497 -80.8828 274° West 371 427 34,000  Level Indianapolis Center
Thu 10:45:17 PM 37.4589 -81.0083 275° West 369 425 34,000  Level Indianapolis Center
Thu 10:46:18 PM 37.4672 -81.1347 275° West 371 427 34,000  Level Indianapolis Center
Thu 10:47:20 PM 37.4753 -81.2614 275° West 371 427 34,000  Level Indianapolis Center
Thu 10:48:21 PM 37.4856 -81.4128 275° West 370 426 34,000  Level Indianapolis Center
Thu 10:49:22 PM 37.4925 -81.5383 274° West 372 428 34,000  Level Indianapolis Center
Thu 10:50:23 PM 37.5008 -81.6683 275° West 373 429 34,000  Level Indianapolis Center
Thu 10:51:24 PM 37.5092 -81.7981 275° West 372 428 34,000  Level Indianapolis Center
Thu 10:52:25 PM 37.5169 -81.9292 274° West 374 430 34,000  Level Indianapolis Center
Thu 10:53:26 PM 37.5239 -82.0583 274° West 373 429 34,000  Level Indianapolis Center
Thu 10:54:27 PM 37.5314 -82.1875 274° West 371 427 34,000  Level Indianapolis Center
Thu 10:55:28 PM 37.5381 -82.3178 274° West 372 428 34,000  Level Indianapolis Center
Thu 10:56:29 PM 37.5467 -82.4692 274° West 372 428 34,000  Level Indianapolis Center
Thu 10:57:31 PM 37.5536 -82.6011 274° West 376 433 34,000  Level Indianapolis Center
Thu 10:58:32 PM 37.5606 -82.7314 274° West 375 432 34,000  Level Indianapolis Center
Thu 10:59:33 PM 37.5669 -82.8628 274° West 376 433 34,000  Level Indianapolis Center
Thu 11:00:34 PM 37.5736 -82.9947 274° West 376 433 34,000  Level Indianapolis Center
Thu 11:01:35 PM 37.5800 -83.1272 274° West 379 436 34,000  Level Indianapolis Center
Thu 11:02:36 PM 37.5867 -83.2592 274° West 380 437 34,000  Level Indianapolis Center
Thu 11:03:38 PM 37.5925 -83.3908 273° West 377 434 34,000  Level Indianapolis Center
Thu 11:04:39 PM 37.5992 -83.5472 273° West 382 440 34,000  Level Indianapolis Center
Thu 11:05:40 PM 37.6053 -83.6794 273° West 380 437 34,000 -541 Level Indianapolis Center
Thu 11:06:41 PM 37.6111 -83.8144 273° West 385 443 32,900 -2,262 Descending Indianapolis Center
Thu 11:07:42 PM 37.6161 -83.9522 273° West 391 450 29,400 -3,787 Descending Indianapolis Center
Thu 11:08:43 PM 37.6231 -84.0917 274° West 396 456 25,200 -3,610 Descending Indianapolis Center
Thu 11:09:45 PM 37.6283 -84.2300 273° West 395 455 22,000 -2,780 Descending Indianapolis Center
Thu 11:10:46 PM 37.6333 -84.3614 273° West 380 437 19,500 -2,213 Descending Indianapolis Center
Thu 11:11:47 PM 37.6383 -84.4894 273° West 370 426 17,500 -2,410 Descending Indianapolis Center
Thu 11:12:48 PM 37.6419 -84.6128 272° West 354 407 14,600 -2,656 Descending Indianapolis Center
Thu 11:13:49 PM 37.6461 -84.7328 273° West 343 395 12,100 -1,756 Descending Indianapolis Center
Thu 11:14:51 PM 37.6511 -84.8686 273° West 335 386 11,000 -1,024 Descending Indianapolis Center
Thu 11:15:52 PM 37.6697 -84.9817 282° West 331 381 10,000 -492 Descending Indianapolis Center
Thu 11:16:53 PM 37.7367 -85.0675 315° West 338 389 10,000  Level Indianapolis Center
Thu 11:17:54 PM 37.7997 -85.1547 312° West 335 386 10,000  Level Indianapolis Center
Thu 11:18:56 PM 37.8650 -85.2458 312° West 333 383 10,000  Level Indianapolis Center
Thu 11:19:57 PM 37.9175 -85.3386 306° West 323 372 10,000  Level Indianapolis Center
Thu 11:20:58 PM 37.9558 -85.4344 297° West 303 349 10,000  Level Indianapolis Center
Thu 11:21:59 PM 37.9922 -85.5303 296° West 302 348 10,000 -98 Level Indianapolis Center
Thu 11:23:00 PM 38.0267 -85.6181 297° West 278 320 9,800 -738 Descending Indianapolis Center
Thu 11:24:01 PM 38.0567 -85.6956 296° West 249 287 8,500 -1,268 Descending Indianapolis Center
Thu 11:25:03 PM 38.0869 -85.7733 296° West 245 282 7,200 -878 Descending Indianapolis Center
Thu 11:26:04 PM 38.1325 -85.8228 320° Northwest 235 270 6,700 -738 Descending Indianapolis Center
Thu 11:27:05 PM 38.1883 -85.8456 342° North 216 249 5,700 -1,082 Descending Indianapolis Center
Thu 11:28:06 PM 38.2403 -85.8642 344° North 206 237 4,500 -1,033 Descending Indianapolis Center
Thu 11:29:07 PM 38.2858 -85.8808 344° North 191 220 3,600 -885 Descending Indianapolis Center
Thu 11:30:08 PM 38.2939 -85.8294 79° East 190 219 2,700 -541 Descending Indianapolis Center
Thu 11:31:09 PM 38.2636 -85.7697 123° Southeast 186 214 2,500 -293 Descending Indianapolis Center
Thu 11:32:11 PM 38.2058 -85.7683 179° South 190 219 2,100 -387 Descending Indianapolis Center

Login

Don't have an account? Register now (free) for customized features, flight alerts, and more!